Ana Sayfa
METAR-TAF:

METAR-TAF

Havaalanları :

Derby, Avustralya

Enlem: 17-34-53S, Boylam: 123-49-42E, yükseklik: 91 m

Güncel hava durumu gözlemi

Rapor saat 13:00 UTC de 24 dakika önce yapıldı.
Rüzgar batıdan 7 kt
Sıcaklık 31°C
Nem 52%
Basınç 1009 hPa
Görüş mesafesi 10 km veya daha fazla

METAR: YCIN 301300Z AUTO 27007KT 9999 // NCD 31/20 Q1009 RF00.0/000.0

Saat: 21:24 (13:24 UTC)

Tahmin

Rapor saat 06:39 UTC de 6 saat ve 45 dakika önce yapıldı.
Ayın 30'si saat 08 UTC'den ayın 30'si saat 20 UTC'ye kadar geçerli Tahmin
Rüzgar kuzey/kuzeybatıdan 9 kt
Görüş mesafesi 10 km veya daha fazla
1500 m altında bulut yok ve kümülonimbus yok
Ayın 30'si saat 1200 UTC'den
Rüzgar batıdan 5 kt
Görüş mesafesi 10 km veya daha fazla
1500 m altında bulut yok ve kümülonimbus yok

TAF: YCIN 300639Z 3008/3020 33009KT CAVOK FM301200 26005KT CAVOK

4.000'den fazla havaalanı için hava durumu gözlemleri ve tahminleri (METAR ve TAF raporları).

Kullanılabilir istasyonlar harita üzerinde sarı ve kırmızı noktalarla gösterilir.

İstasyonun adını görmek için fareyi noktanın üzerinde gezdirin.

Sonrasında hava gözlem ve tahminlerini görmek için tıklayın.

Haritayı değiştirmek için: yaklaştırmak için siyah artı işaretli yeşil düğmeye ve uzaklaştırmak için de eksi işaretli düğmeye hızla tıklayın; bitişik haritalar için yeşil okları kullanın.


METAR-TAF: